createdAt,value
2017-11-06T00:00:23.192Z,9.30
2017-11-06T00:02:51.481Z,11.57
2017-11-06T00:05:20.526Z,10.53
2017-11-06T00:07:48.774Z,12.37
2017-11-06T00:10:17.840Z,9.50
2017-11-06T00:12:46.102Z,9.07
2017-11-06T00:15:14.389Z,10.73
2017-11-06T00:17:42.639Z,11.17
2017-11-06T00:20:10.912Z,12.50
2017-11-06T00:22:39.258Z,12.03
2017-11-06T00:25:08.316Z,10.27
2017-11-06T00:27:36.563Z,6.77
2017-11-06T00:30:04.871Z,11.40
2017-11-06T00:32:33.128Z,10.60
2017-11-06T00:35:01.407Z,9.53
2017-11-06T00:37:29.660Z,11.57
2017-11-06T00:39:57.935Z,10.70
2017-11-06T00:42:26.250Z,12.90
2017-11-06T00:44:54.526Z,8.73
2017-11-06T00:47:22.805Z,9.70
2017-11-06T00:49:51.083Z,11.43
2017-11-06T00:52:19.347Z,10.53
2017-11-06T00:54:47.641Z,10.17
2017-11-06T00:57:15.888Z,12.47
2017-11-06T00:59:44.171Z,11.20
2017-11-06T01:02:12.420Z,9.20
2017-11-06T01:04:42.385Z,19.00
2017-11-06T01:07:10.679Z,10.67
2017-11-06T01:09:38.949Z,7.90
2017-11-06T01:12:07.201Z,10.53
2017-11-06T01:14:35.497Z,13.40
2017-11-06T01:17:03.760Z,8.90
2017-11-06T01:19:32.093Z,8.10
2017-11-06T01:22:00.360Z,11.03
2017-11-06T01:24:29.385Z,12.30
2017-11-06T01:26:57.693Z,15.13
2017-11-06T01:29:25.978Z,12.63
2017-11-06T01:31:54.244Z,11.00
2017-11-06T01:34:22.497Z,9.17
2017-11-06T01:36:50.773Z,7.70
2017-11-06T01:39:19.090Z,9.80
2017-11-06T01:41:47.381Z,10.47
2017-11-06T01:44:16.424Z,13.40
2017-11-06T01:46:44.703Z,9.87
2017-11-06T01:49:12.949Z,8.47
2017-11-06T01:51:41.990Z,10.03
2017-11-06T01:54:10.248Z,10.17
2017-11-06T01:56:38.529Z,8.77
2017-11-06T01:59:06.780Z,10.70
2017-11-06T02:01:35.841Z,11.17
2017-11-06T02:04:04.106Z,8.43
2017-11-06T02:06:32.382Z,12.80
2017-11-06T02:09:00.626Z,9.27
2017-11-06T02:11:28.907Z,10.20
2017-11-06T02:13:57.179Z,11.13
2017-11-06T02:16:25.456Z,11.97
2017-11-06T02:18:53.716Z,8.03
2017-11-06T02:21:22.041Z,8.40
2017-11-06T02:23:50.292Z,10.77
2017-11-06T02:26:18.580Z,8.87
2017-11-06T02:28:46.842Z,6.53
2017-11-06T02:31:15.152Z,12.03
2017-11-06T02:33:43.427Z,10.47
2017-11-06T02:36:11.818Z,7.47
2017-11-06T02:38:40.897Z,7.47
2017-11-06T02:41:09.180Z,6.93
2017-11-06T02:43:37.434Z,9.20
2017-11-06T02:46:05.700Z,9.20
2017-11-06T02:48:33.994Z,6.87
2017-11-06T02:51:02.278Z,10.43
2017-11-06T02:53:30.548Z,6.67
2017-11-06T02:55:58.824Z,8.73
2017-11-06T02:58:27.076Z,8.33
2017-11-06T03:00:55.337Z,9.53
2017-11-06T03:03:24.356Z,7.73
2017-11-06T03:05:52.626Z,11.73
2017-11-06T03:08:21.046Z,6.87
2017-11-06T03:10:49.329Z,6.40
2017-11-06T03:13:17.566Z,9.17
2017-11-06T03:15:45.876Z,5.70
2017-11-06T03:18:14.145Z,7.90
2017-11-06T03:20:42.396Z,12.93
2017-11-06T03:23:10.682Z,6.37
2017-11-06T03:25:38.973Z,5.90
2017-11-06T03:28:07.244Z,5.90
2017-11-06T03:30:35.493Z,6.37
2017-11-06T03:33:03.826Z,8.13
2017-11-06T03:35:32.841Z,7.57
2017-11-06T03:38:01.104Z,5.90
2017-11-06T03:40:29.352Z,5.60
2017-11-06T03:42:57.625Z,7.87
2017-11-06T03:45:25.890Z,6.57
2017-11-06T03:47:54.172Z,6.90
2017-11-06T03:50:22.426Z,5.80
2017-11-06T03:52:50.717Z,7.67
2017-11-06T03:55:18.986Z,7.20
2017-11-06T03:57:47.263Z,5.50
2017-11-06T04:00:15.520Z,7.67
2017-11-06T04:02:44.670Z,6.57
2017-11-06T04:05:12.952Z,12.87
2017-11-06T04:07:41.250Z,6.50
2017-11-06T04:10:09.517Z,10.63
2017-11-06T04:12:38.556Z,5.90
2017-11-06T04:15:06.826Z,6.93
2017-11-06T04:17:35.157Z,11.33
2017-11-06T04:20:03.411Z,8.60
2017-11-06T04:22:31.695Z,8.07
2017-11-06T04:24:59.968Z,6.13
2017-11-06T04:27:28.281Z,10.40
2017-11-06T04:29:56.539Z,6.10
2017-11-06T04:32:24.811Z,6.47
2017-11-06T04:34:53.060Z,10.10
2017-11-06T04:37:21.332Z,12.90
2017-11-06T04:39:49.608Z,6.07
2017-11-06T04:42:17.875Z,12.00
2017-11-06T04:44:46.123Z,8.80
2017-11-06T04:47:14.388Z,9.40
2017-11-06T04:49:42.640Z,8.00
2017-11-06T04:52:10.930Z,8.20
2017-11-06T04:54:39.168Z,5.57
2017-11-06T04:57:07.462Z,6.97
2017-11-06T04:59:35.727Z,9.50
2017-11-06T05:02:04.028Z,10.33
2017-11-06T05:04:32.296Z,7.73
2017-11-06T05:07:00.580Z,6.43
2017-11-06T05:09:28.972Z,9.63
2017-11-06T05:11:57.230Z,12.03
2017-11-06T05:14:25.508Z,8.53
2017-11-06T05:16:53.809Z,6.03
2017-11-06T05:19:22.081Z,7.30
2017-11-06T05:21:50.344Z,8.43
2017-11-06T05:24:18.622Z,6.23
2017-11-06T05:26:46.876Z,5.77
2017-11-06T05:29:15.152Z,6.07
2017-11-06T05:31:43.400Z,13.33
2017-11-06T05:34:12.458Z,6.27
2017-11-06T05:36:40.730Z,6.80
2017-11-06T05:39:09.006Z,8.37
2017-11-06T05:41:37.264Z,5.67
2017-11-06T05:44:05.534Z,9.40
2017-11-06T05:46:33.788Z,6.57
2017-11-06T05:49:02.846Z,9.87
2017-11-06T05:51:31.101Z,10.63
2017-11-06T05:53:59.407Z,8.13
2017-11-06T05:56:27.651Z,6.13
2017-11-06T05:58:55.934Z,6.97
2017-11-06T06:01:24.206Z,8.17
2017-11-06T06:03:52.475Z,8.70
2017-11-06T06:06:20.746Z,9.77
2017-11-06T06:08:49.020Z,10.10
2017-11-06T06:11:17.339Z,13.90
2017-11-06T06:13:45.617Z,8.00
2017-11-06T06:16:14.652Z,12.80
2017-11-06T06:18:42.930Z,7.60
2017-11-06T06:21:11.260Z,6.50
2017-11-06T06:23:39.532Z,7.80
2017-11-06T06:26:07.781Z,9.07
2017-11-06T06:28:36.081Z,8.77
2017-11-06T06:31:04.363Z,9.17
2017-11-06T06:33:32.638Z,5.07
2017-11-06T06:36:00.880Z,7.20
2017-11-06T06:38:29.150Z,13.60
2017-11-06T06:40:57.509Z,9.07
2017-11-06T06:43:26.581Z,9.00
2017-11-06T06:45:56.365Z,13.43
2017-11-06T06:48:24.632Z,14.60
2017-11-06T06:50:52.903Z,4.97
2017-11-06T06:53:21.164Z,7.00
2017-11-06T06:55:49.451Z,11.47
2017-11-06T06:58:17.701Z,7.10
2017-11-06T07:00:46.804Z,8.87
2017-11-06T07:03:15.858Z,10.10
2017-11-06T07:05:44.237Z,7.27
2017-11-06T07:08:12.486Z,7.60
2017-11-06T07:10:40.756Z,5.67
2017-11-06T07:13:09.006Z,6.33
2017-11-06T07:15:38.072Z,12.77
2017-11-06T07:18:06.333Z,8.80
2017-11-06T07:20:34.605Z,8.80
2017-11-06T07:23:02.861Z,8.50
2017-11-06T07:25:31.158Z,7.40
2017-11-06T07:27:59.419Z,9.00
2017-11-06T07:30:27.689Z,7.13
2017-11-06T07:32:55.950Z,9.17
2017-11-06T07:35:24.220Z,8.10
2017-11-06T07:37:53.246Z,8.27
2017-11-06T07:40:21.559Z,8.07
2017-11-06T07:42:49.803Z,8.47
2017-11-06T07:45:18.070Z,8.83
2017-11-06T07:47:46.330Z,7.47
2017-11-06T07:50:15.371Z,14.70
2017-11-06T07:52:43.628Z,10.43
2017-11-06T07:55:11.887Z,9.30
2017-11-06T07:57:40.145Z,7.93
2017-11-06T08:00:09.185Z,7.73
2017-11-06T08:02:37.442Z,9.17
2017-11-06T08:05:05.924Z,10.30
2017-11-06T08:07:34.188Z,10.17
2017-11-06T08:10:02.483Z,9.43
2017-11-06T08:12:30.732Z,7.43
2017-11-06T08:14:59.764Z,8.57
2017-11-06T08:17:28.022Z,11.80
2017-11-06T08:19:56.300Z,12.00
2017-11-06T08:22:24.568Z,9.47
2017-11-06T08:24:53.732Z,10.30
2017-11-06T08:27:22.004Z,10.93
2017-11-06T08:29:51.798Z,7.23
2017-11-06T08:32:20.073Z,10.50
2017-11-06T08:34:48.339Z,8.53
2017-11-06T08:37:16.634Z,13.27
2017-11-06T08:39:45.017Z,8.57
2017-11-06T08:42:13.284Z,11.17
2017-11-06T08:44:42.249Z,10.27
2017-11-06T08:47:10.508Z,9.50
2017-11-06T08:49:38.775Z,8.03
2017-11-06T08:52:07.808Z,8.90
2017-11-06T08:54:36.093Z,12.37
2017-11-06T08:57:04.393Z,13.57
2017-11-06T08:59:32.661Z,9.70
2017-11-06T09:02:00.924Z,8.90
2017-11-06T09:04:29.177Z,9.43
2017-11-06T09:06:57.462Z,9.57
2017-11-06T09:09:25.718Z,9.60
2017-11-06T09:11:54.042Z,9.33
2017-11-06T09:14:22.308Z,9.07
2017-11-06T09:16:51.264Z,13.03
2017-11-06T09:19:20.006Z,7.07
2017-11-06T09:21:49.055Z,8.60
2017-11-06T09:24:17.314Z,10.83
2017-11-06T09:26:46.362Z,10.60
2017-11-06T09:29:14.612Z,7.47
2017-11-06T09:31:42.898Z,8.37
2017-11-06T09:34:11.198Z,7.07
2017-11-06T09:36:39.488Z,11.30
2017-11-06T09:39:07.746Z,8.13
2017-11-06T09:41:36.117Z,11.50
2017-11-06T09:44:04.368Z,10.87
2017-11-06T09:46:32.649Z,12.10
2017-11-06T09:49:00.903Z,11.53
2017-11-06T09:51:30.048Z,11.30
2017-11-06T09:53:58.306Z,12.37
2017-11-06T09:56:26.591Z,11.40
2017-11-06T09:58:54.860Z,8.53
2017-11-06T10:01:23.167Z,10.17
2017-11-06T10:03:51.449Z,9.10
2017-11-06T10:06:19.709Z,8.37
2017-11-06T10:08:47.956Z,9.87
2017-11-06T10:11:16.261Z,6.53
2017-11-06T10:13:44.539Z,10.33
2017-11-06T10:16:12.803Z,10.33
2017-11-06T10:18:41.056Z,9.00
2017-11-06T10:21:09.368Z,6.40
2017-11-06T10:23:37.652Z,7.17
2017-11-06T10:26:05.924Z,10.73
2017-11-06T10:28:34.181Z,6.90
2017-11-06T10:31:02.487Z,6.57
2017-11-06T10:33:30.750Z,10.60
2017-11-06T10:35:59.042Z,9.93
2017-11-06T10:38:27.320Z,7.53
2017-11-06T10:40:55.596Z,8.47
2017-11-06T10:43:23.846Z,6.57
2017-11-06T10:45:52.134Z,6.00
2017-11-06T10:48:20.413Z,6.70
2017-11-06T10:50:48.684Z,10.80
2017-11-06T10:53:16.953Z,8.60
2017-11-06T10:55:45.292Z,10.03
2017-11-06T10:58:13.573Z,9.10
2017-11-06T11:00:42.600Z,7.27
2017-11-06T11:03:10.911Z,9.07
2017-11-06T11:05:39.213Z,5.90
2017-11-06T11:08:07.562Z,8.80
2017-11-06T11:10:35.846Z,5.83
2017-11-06T11:13:04.158Z,9.70
2017-11-06T11:15:33.318Z,5.33
2017-11-06T11:18:01.571Z,7.53
2017-11-06T11:20:29.850Z,4.70
2017-11-06T11:22:58.109Z,4.80
2017-11-06T11:25:26.376Z,5.93
2017-11-06T11:27:54.692Z,5.47
2017-11-06T11:30:22.974Z,9.33
2017-11-06T11:32:51.245Z,5.13
2017-11-06T11:35:19.531Z,11.60
2017-11-06T11:37:47.788Z,5.63
2017-11-06T11:40:16.060Z,3.97
2017-11-06T11:42:44.381Z,7.07
2017-11-06T11:45:12.792Z,7.17
2017-11-06T11:47:41.817Z,5.47
2017-11-06T11:50:10.119Z,8.60
2017-11-06T11:52:38.403Z,4.83
2017-11-06T11:55:07.446Z,3.97
2017-11-06T11:57:35.749Z,6.83
2017-11-06T12:00:04.455Z,6.83
2017-11-06T12:02:32.712Z,5.77
2017-11-06T12:05:00.988Z,6.53
2017-11-06T12:07:29.257Z,4.30
2017-11-06T12:09:57.545Z,8.27
2017-11-06T12:12:25.805Z,8.63
2017-11-06T12:14:54.096Z,4.17
2017-11-06T12:17:22.340Z,8.50
2017-11-06T12:19:50.620Z,4.03
2017-11-06T12:22:18.932Z,8.77
2017-11-06T12:24:47.220Z,7.27
2017-11-06T12:27:16.298Z,4.90
2017-11-06T12:29:44.573Z,5.73
2017-11-06T12:32:12.838Z,4.30
2017-11-06T12:34:41.114Z,6.87
2017-11-06T12:37:09.381Z,10.60
2017-11-06T12:39:37.653Z,7.93
2017-11-06T12:42:05.929Z,7.80
2017-11-06T12:44:34.176Z,9.33
2017-11-06T12:47:03.224Z,4.77
2017-11-06T12:49:31.476Z,6.23
2017-11-06T12:51:59.762Z,4.03
2017-11-06T12:54:28.035Z,4.07
2017-11-06T12:56:56.349Z,3.40
2017-11-06T12:59:24.609Z,7.40
2017-11-06T13:01:53.003Z,3.87
2017-11-06T13:04:21.264Z,4.57
2017-11-06T13:06:49.557Z,3.67
2017-11-06T13:09:17.817Z,5.07
2017-11-06T13:11:46.098Z,4.70
2017-11-06T13:14:14.362Z,3.20
2017-11-06T13:16:42.642Z,3.07
2017-11-06T13:19:10.918Z,3.37
2017-11-06T13:21:39.196Z,2.83
2017-11-06T13:24:07.456Z,5.90
2017-11-06T13:26:35.745Z,3.93
2017-11-06T13:29:03.996Z,3.00
2017-11-06T13:31:32.277Z,4.60
2017-11-06T13:34:00.599Z,3.47
2017-11-06T13:36:28.864Z,6.23
2017-11-06T13:38:57.142Z,3.43
2017-11-06T13:41:25.520Z,2.40
2017-11-06T13:43:53.776Z,3.03
2017-11-06T13:46:22.190Z,3.80
2017-11-06T13:48:50.443Z,2.80
2017-11-06T13:51:18.731Z,3.83
2017-11-06T13:53:46.993Z,1.70
2017-11-06T13:56:15.282Z,3.30
2017-11-06T13:58:43.580Z,3.03
2017-11-06T14:01:11.971Z,2.63
2017-11-06T14:03:40.221Z,4.67
2017-11-06T14:06:08.497Z,2.60
2017-11-06T14:08:36.754Z,5.97
2017-11-06T14:11:05.042Z,4.73
2017-11-06T14:13:33.296Z,4.00
2017-11-06T14:16:01.577Z,2.20
2017-11-06T14:18:29.842Z,2.30
2017-11-06T14:20:58.142Z,4.27
2017-11-06T14:23:26.404Z,2.97
2017-11-06T14:25:54.681Z,1.73
2017-11-06T14:28:23.010Z,4.40
2017-11-06T14:30:51.296Z,1.93
2017-11-06T14:33:19.550Z,2.70
2017-11-06T14:35:47.924Z,2.07
2017-11-06T14:38:16.222Z,2.63
2017-11-06T14:40:44.496Z,3.10
2017-11-06T14:43:12.760Z,2.03
2017-11-06T14:45:41.044Z,1.90
2017-11-06T14:48:09.296Z,1.53
2017-11-06T14:50:37.578Z,2.07
2017-11-06T14:53:05.837Z,2.40
2017-11-06T14:55:34.124Z,3.17
2017-11-06T14:58:02.447Z,2.57
2017-11-06T15:00:30.783Z,1.77
2017-11-06T15:02:59.070Z,2.43
2017-11-06T15:05:27.334Z,3.10
2017-11-06T15:07:55.612Z,1.63
2017-11-06T15:10:23.873Z,2.70
2017-11-06T15:12:52.201Z,7.23
2017-11-06T15:15:20.466Z,3.37
2017-11-06T15:17:48.752Z,3.60
2017-11-06T15:20:17.047Z,2.30
2017-11-06T15:22:45.326Z,3.90
2017-11-06T15:25:13.591Z,2.03
2017-11-06T15:27:41.861Z,2.70
2017-11-06T15:30:10.123Z,2.67
2017-11-06T15:32:38.525Z,3.77
2017-11-06T15:35:08.295Z,2.93
2017-11-06T15:37:36.597Z,3.50
2017-11-06T15:40:04.866Z,3.17
2017-11-06T15:42:33.140Z,3.20
2017-11-06T15:45:01.402Z,4.77
2017-11-06T15:47:29.677Z,3.43
2017-11-06T15:49:57.947Z,4.50
2017-11-06T15:52:26.216Z,2.90
2017-11-06T15:54:54.475Z,3.80
2017-11-06T15:57:23.516Z,4.80
2017-11-06T15:59:51.769Z,5.13
2017-11-06T16:02:20.084Z,4.23
2017-11-06T16:04:48.334Z,4.13
2017-11-06T16:07:16.604Z,8.30
2017-11-06T16:09:44.852Z,8.20
2017-11-06T16:12:14.012Z,4.13
2017-11-06T16:14:42.295Z,3.87
2017-11-06T16:17:10.584Z,4.03
2017-11-06T16:19:38.857Z,4.50
2017-11-06T16:22:07.240Z,5.67
2017-11-06T16:24:35.601Z,5.37
2017-11-06T16:27:03.874Z,6.60
2017-11-06T16:29:32.120Z,6.63
2017-11-06T16:32:00.433Z,6.30
2017-11-06T16:34:28.704Z,5.80
2017-11-06T16:36:56.972Z,5.03
2017-11-06T16:39:25.234Z,5.23
2017-11-06T16:41:53.542Z,7.10
2017-11-06T16:44:21.788Z,4.70
2017-11-06T16:46:50.054Z,4.97
2017-11-06T16:49:18.364Z,9.73
2017-11-06T16:51:46.641Z,7.37
2017-11-06T16:54:14.884Z,6.53
2017-11-06T16:56:43.172Z,4.93
2017-11-06T16:59:11.420Z,7.00
2017-11-06T17:01:40.434Z,5.63
2017-11-06T17:04:08.711Z,7.93
2017-11-06T17:06:37.022Z,6.27
2017-11-06T17:09:05.293Z,7.53
2017-11-06T17:11:33.576Z,8.00
2017-11-06T17:14:01.847Z,6.30
2017-11-06T17:16:30.094Z,6.67
2017-11-06T17:18:58.422Z,6.47
2017-11-06T17:21:26.668Z,5.00
2017-11-06T17:23:54.941Z,8.67
2017-11-06T17:26:23.199Z,6.97
2017-11-06T17:28:51.474Z,9.10
2017-11-06T17:31:20.484Z,7.10
2017-11-06T17:33:48.756Z,8.23
2017-11-06T17:36:17.072Z,7.07
2017-11-06T17:38:45.462Z,5.87
2017-11-06T17:41:14.594Z,11.60
2017-11-06T17:43:43.636Z,6.90
2017-11-06T17:46:11.960Z,8.60
2017-11-06T17:48:42.040Z,5.30
2017-11-06T17:51:10.288Z,6.63
2017-11-06T17:53:38.557Z,7.77
2017-11-06T17:56:06.874Z,7.93
2017-11-06T17:58:35.146Z,7.00
2017-11-06T18:01:03.392Z,7.90
2017-11-06T18:03:31.701Z,8.77
2017-11-06T18:05:59.963Z,8.20
2017-11-06T18:08:28.252Z,7.67
2017-11-06T18:10:56.530Z,10.30
2017-11-06T18:13:24.794Z,7.83
2017-11-06T18:15:53.140Z,9.13
2017-11-06T18:18:22.184Z,6.87
2017-11-06T18:20:50.441Z,7.43
2017-11-06T18:23:18.746Z,9.30
2017-11-06T18:25:47.002Z,7.87
2017-11-06T18:28:15.255Z,8.20
2017-11-06T18:30:43.567Z,5.83
2017-11-06T18:33:11.805Z,7.67
2017-11-06T18:35:40.074Z,9.37
2017-11-06T18:38:08.334Z,8.70
2017-11-06T18:40:37.380Z,11.90
2017-11-06T18:43:05.642Z,9.30
2017-11-06T18:45:33.924Z,15.17
2017-11-06T18:48:02.182Z,11.87
2017-11-06T18:50:30.455Z,10.97
2017-11-06T18:52:58.715Z,6.90
2017-11-06T18:55:27.748Z,10.53
2017-11-06T18:57:56.047Z,9.73
2017-11-06T19:00:24.321Z,12.60
2017-11-06T19:02:52.603Z,11.67
2017-11-06T19:05:20.888Z,11.60
2017-11-06T19:07:49.157Z,10.70
2017-11-06T19:10:17.429Z,12.00
2017-11-06T19:12:45.683Z,16.40
2017-11-06T19:15:14.003Z,16.30
2017-11-06T19:17:42.257Z,12.93
2017-11-06T19:20:10.587Z,15.13
2017-11-06T19:22:39.613Z,13.30
2017-11-06T19:25:07.893Z,18.80
2017-11-06T19:27:36.150Z,15.87
2017-11-06T19:30:04.443Z,20.40
2017-11-06T19:32:32.699Z,17.23
2017-11-06T19:35:00.982Z,15.97
2017-11-06T19:37:29.294Z,16.17
2017-11-06T19:39:57.782Z,23.53
2017-11-06T19:42:26.050Z,18.33
2017-11-06T19:44:54.320Z,19.60
2017-11-06T19:47:22.581Z,16.03
2017-11-06T19:49:50.860Z,19.87
2017-11-06T19:52:19.121Z,17.80
2017-11-06T19:54:47.447Z,23.30
2017-11-06T19:57:16.534Z,25.03
2017-11-06T19:59:44.826Z,18.60
2017-11-06T20:02:13.858Z,33.20
2017-11-06T20:04:42.188Z,32.03
2017-11-06T20:07:10.476Z,29.30
2017-11-06T20:09:38.769Z,25.97
2017-11-06T20:12:07.794Z,27.10
2017-11-06T20:14:36.112Z,28.83
2017-11-06T20:17:04.385Z,25.17
2017-11-06T20:19:32.695Z,25.30
2017-11-06T20:22:02.482Z,31.80
2017-11-06T20:24:30.756Z,27.20
2017-11-06T20:26:59.026Z,23.87
2017-11-06T20:29:27.318Z,28.70
2017-11-06T20:31:55.590Z,27.37
2017-11-06T20:34:23.985Z,25.67
2017-11-06T20:36:52.265Z,30.27
2017-11-06T20:39:20.567Z,28.40
2017-11-06T20:41:49.616Z,28.30
2017-11-06T20:44:17.876Z,22.67
2017-11-06T20:46:46.146Z,28.30
2017-11-06T20:49:14.424Z,28.57
2017-11-06T20:51:42.687Z,28.63
2017-11-06T20:54:11.003Z,34.33
2017-11-06T20:56:39.279Z,27.20
2017-11-06T20:59:07.553Z,23.43
2017-11-06T21:01:35.852Z,26.23
2017-11-06T21:04:04.124Z,24.13
2017-11-06T21:06:33.930Z,27.60
2017-11-06T21:09:04.042Z,28.40
2017-11-06T21:11:34.228Z,23.80
2017-11-06T21:14:02.519Z,32.47
2017-11-06T21:16:30.836Z,24.13
2017-11-06T21:19:00.632Z,28.67
2017-11-06T21:21:28.918Z,30.50
2017-11-06T21:23:57.240Z,26.80
2017-11-06T21:26:25.500Z,27.90
2017-11-06T21:28:54.562Z,30.93
2017-11-06T21:31:22.849Z,26.60
2017-11-06T21:33:51.112Z,25.67
2017-11-06T21:36:19.381Z,29.33
2017-11-06T21:38:47.644Z,24.43
2017-11-06T21:41:15.918Z,27.13
2017-11-06T21:43:44.215Z,27.90
2017-11-06T21:46:12.477Z,28.07
2017-11-06T21:48:40.737Z,23.93
2017-11-06T21:51:09.034Z,24.63
2017-11-06T21:53:37.281Z,26.03
2017-11-06T21:56:05.570Z,26.63
2017-11-06T21:58:33.830Z,21.40
2017-11-06T22:01:02.112Z,23.57
2017-11-06T22:03:30.386Z,20.33
2017-11-06T22:05:58.689Z,19.33
2017-11-06T22:08:26.964Z,25.17
2017-11-06T22:10:55.273Z,20.30
2017-11-06T22:13:23.530Z,18.17
2017-11-06T22:15:51.824Z,26.10
2017-11-06T22:18:20.084Z,20.67
2017-11-06T22:20:48.388Z,18.37
2017-11-06T22:23:16.796Z,21.10
2017-11-06T22:25:45.828Z,18.70
2017-11-06T22:28:14.105Z,18.53
2017-11-06T22:30:42.401Z,17.43
2017-11-06T22:33:10.665Z,17.60
2017-11-06T22:35:38.991Z,17.17
2017-11-06T22:38:08.160Z,18.63
2017-11-06T22:40:36.464Z,17.60
2017-11-06T22:43:05.488Z,17.90
2017-11-06T22:45:33.818Z,20.20
2017-11-06T22:48:02.200Z,19.10
2017-11-06T22:50:30.570Z,20.83
2017-11-06T22:52:58.831Z,17.50
2017-11-06T22:55:27.100Z,17.37
2017-11-06T22:57:55.379Z,19.40
2017-11-06T23:00:23.648Z,20.13
2017-11-06T23:02:51.920Z,22.23
2017-11-06T23:05:20.190Z,20.67
2017-11-06T23:07:48.492Z,16.97
2017-11-06T23:10:16.740Z,20.80
2017-11-06T23:12:45.022Z,13.10
2017-11-06T23:15:18.940Z,22.40
2017-11-06T23:17:47.236Z,15.33
2017-11-06T23:20:15.508Z,18.40
2017-11-06T23:22:43.885Z,17.37
2017-11-06T23:25:12.189Z,24.57
2017-11-06T23:27:40.463Z,20.10
2017-11-06T23:30:08.725Z,21.77
2017-11-06T23:32:37.116Z,21.10
2017-11-06T23:35:06.213Z,16.33
2017-11-06T23:37:34.502Z,15.90
2017-11-06T23:40:03.596Z,18.40
2017-11-06T23:42:33.453Z,15.70
2017-11-06T23:45:01.704Z,16.30
2017-11-06T23:47:30.177Z,16.13
2017-11-06T23:49:59.202Z,17.70
2017-11-06T23:52:27.480Z,16.90
2017-11-06T23:54:55.755Z,20.90
2017-11-06T23:57:24.035Z,17.20
2017-11-06T23:59:52.346Z,15.37
